Terminal Aerodrome Forecast
Issued by NWS Newport/Morehead City, NC

Home | Current Version | Previous Version | Graphics & Text | Print | Product List | Glossary On
Versions: 1 2 3 4 5 6 7 8 9 10 11 12 13 14 15
554
FTUS42 KMHX 251403 AAA
TAFEWN
TAF AMD
KEWN 251403Z 2514/2612 22008KT P6SM SKC
     FM251600 21011G22KT P6SM SCT200
     FM260200 30010G20KT P6SM SCT250
     FM260900 32008KT P6SM SKC=

USA.gov is the U.S. government's official web portal to all federal, state and local government web resources and services.